createdAt,value
2022-12-17T00:01:28.602Z,1.21
2022-12-17T00:06:51.968Z,1.05
2022-12-17T00:12:12.340Z,1.07
2022-12-17T00:17:32.791Z,0.94
2022-12-17T00:22:53.300Z,0.64
2022-12-17T00:28:13.706Z,0.93
2022-12-17T00:33:34.462Z,1.02
2022-12-17T00:39:08.809Z,1.04
2022-12-17T00:44:29.343Z,0.35
2022-12-17T00:49:49.816Z,0.46
2022-12-17T00:55:10.251Z,0.35
2022-12-17T01:00:31.160Z,0.60
2022-12-17T01:05:52.728Z,0.35
2022-12-17T01:11:22.875Z,0.84
2022-12-17T01:16:43.307Z,0.31
2022-12-17T01:22:04.662Z,1.10
2022-12-17T01:27:25.540Z,0.76
2022-12-17T01:32:45.843Z,0.73
2022-12-17T01:38:06.094Z,0.96
2022-12-17T01:43:31.707Z,0.77
2022-12-17T01:49:05.495Z,0.96
2022-12-17T01:54:25.879Z,0.61
2022-12-17T02:00:20.193Z,1.02
2022-12-17T02:05:48.055Z,0.83
2022-12-17T02:11:23.537Z,0.86
2022-12-17T02:16:51.401Z,0.90
2022-12-17T02:22:16.816Z,1.07
2022-12-17T02:27:37.802Z,0.53
2022-12-17T02:33:01.149Z,0.80
2022-12-17T02:38:35.237Z,0.87
2022-12-17T02:43:56.139Z,0.87
2022-12-17T02:49:16.502Z,0.63
2022-12-17T02:54:37.792Z,0.68
2022-12-17T02:59:58.875Z,1.01
2022-12-17T03:05:43.853Z,1.08
2022-12-17T03:11:00.754Z,0.97
2022-12-17T03:16:37.217Z,1.09
2022-12-17T03:21:58.231Z,0.81
2022-12-17T03:27:19.053Z,0.54
2022-12-17T03:32:39.402Z,0.18
2022-12-17T03:37:59.804Z,0.25
2022-12-17T03:43:27.426Z,-0.01
2022-12-17T03:48:47.648Z,0.02
2022-12-17T03:54:08.078Z,-0.00
2022-12-17T03:59:28.657Z,-0.16
2022-12-17T04:04:49.168Z,-0.01
2022-12-17T04:10:09.423Z,-0.12
2022-12-17T04:15:29.852Z,0.12
2022-12-17T04:20:50.168Z,0.18
2022-12-17T04:26:10.516Z,0.07
2022-12-17T04:31:30.738Z,0.13
2022-12-17T04:36:51.144Z,-0.01
2022-12-17T04:42:11.567Z,0.02
2022-12-17T04:47:31.814Z,0.77
2022-12-17T04:52:52.063Z,0.86
2022-12-17T04:58:12.711Z,0.88
2022-12-17T05:03:35.866Z,0.91
2022-12-17T05:08:56.648Z,0.62
2022-12-17T05:14:16.964Z,0.49
2022-12-17T05:19:37.278Z,0.30
2022-12-17T05:24:57.789Z,0.06
2022-12-17T05:30:18.190Z,0.45
2022-12-17T05:35:38.412Z,0.31
2022-12-17T05:40:58.706Z,-0.00
2022-12-17T05:46:19.173Z,-0.09
2022-12-17T05:51:40.585Z,-0.19
2022-12-17T05:57:00.850Z,-0.13
2022-12-17T06:02:21.230Z,0.18
2022-12-17T06:07:41.877Z,0.46
2022-12-17T06:13:02.280Z,0.06
2022-12-17T06:18:22.699Z,-0.06
2022-12-17T06:23:43.064Z,-0.14
2022-12-17T06:29:03.732Z,-0.27
2022-12-17T06:34:24.064Z,0.07
2022-12-17T06:39:44.440Z,-0.44
2022-12-17T06:45:04.699Z,-0.12
2022-12-17T06:50:25.569Z,0.09
2022-12-17T06:55:46.396Z,0.09
2022-12-17T07:01:07.078Z,0.14
2022-12-17T07:06:27.437Z,-0.35
2022-12-17T07:11:48.062Z,0.18
2022-12-17T07:17:08.510Z,0.06
2022-12-17T07:22:29.160Z,0.01
2022-12-17T07:27:49.636Z,0.50
2022-12-17T07:33:18.155Z,0.14
2022-12-17T07:38:38.645Z,0.28
2022-12-17T07:43:59.502Z,0.33
2022-12-17T07:49:25.379Z,0.34
2022-12-17T07:54:46.178Z,-0.19
2022-12-17T08:00:06.508Z,0.47
2022-12-17T08:05:27.379Z,0.04
2022-12-17T08:10:52.167Z,0.02
2022-12-17T08:16:13.173Z,0.05
2022-12-17T08:21:33.782Z,0.23
2022-12-17T08:26:53.931Z,-0.17
2022-12-17T08:32:14.252Z,0.29
2022-12-17T08:37:34.819Z,0.02
2022-12-17T08:42:55.599Z,0.51
2022-12-17T08:48:23.934Z,0.17
2022-12-17T08:53:44.399Z,0.33
2022-12-17T08:59:04.583Z,-0.03
2022-12-17T09:04:24.852Z,0.12
2022-12-17T09:09:45.119Z,0.16
2022-12-17T09:15:05.292Z,0.48
2022-12-17T09:20:29.496Z,0.37
2022-12-17T09:25:53.766Z,0.49
2022-12-17T09:31:19.513Z,0.10
2022-12-17T09:36:39.942Z,0.35
2022-12-17T09:42:06.540Z,0.42
2022-12-17T09:47:47.603Z,0.21
2022-12-17T09:53:08.639Z,-0.13
2022-12-17T09:58:48.708Z,0.20
2022-12-17T10:04:08.983Z,0.48
2022-12-17T10:09:35.565Z,0.45
2022-12-17T10:14:55.816Z,0.28
2022-12-17T10:20:17.654Z,0.97
2022-12-17T10:25:41.104Z,0.54
2022-12-17T10:31:02.227Z,0.68
2022-12-17T10:36:24.587Z,0.31
2022-12-17T10:41:53.177Z,0.25
2022-12-17T10:47:18.328Z,0.19
2022-12-17T10:52:51.014Z,0.21
2022-12-17T10:58:11.373Z,0.73
2022-12-17T11:03:48.809Z,0.20
2022-12-17T11:09:09.622Z,-0.25
2022-12-17T11:14:32.063Z,-0.06
2022-12-17T11:20:12.781Z,0.23
2022-12-17T11:25:49.296Z,0.69
2022-12-17T11:31:20.850Z,0.39
2022-12-17T11:36:52.271Z,0.07
2022-12-17T11:42:30.144Z,0.14
2022-12-17T11:48:08.603Z,0.23
2022-12-17T11:53:41.151Z,-0.12
2022-12-17T11:59:15.097Z,-0.01
2022-12-17T12:04:47.687Z,-0.02
2022-12-17T12:10:34.288Z,-0.45
2022-12-17T12:16:15.819Z,-0.37
2022-12-17T12:22:17.931Z,-0.54
2022-12-17T12:28:07.803Z,-0.95
2022-12-17T12:33:39.984Z,-0.81
2022-12-17T12:39:02.398Z,-0.59
2022-12-17T12:44:34.988Z,-0.67
2022-12-17T12:50:21.979Z,0.02
2022-12-17T12:55:42.329Z,-0.53
2022-12-17T13:01:05.798Z,0.03
2022-12-17T13:06:08.035Z,-0.26
2022-12-17T13:11:36.182Z,-0.29
2022-12-17T13:16:52.365Z,-0.39
2022-12-17T13:21:54.464Z,0.15
2022-12-17T13:26:56.484Z,0.17
2022-12-17T13:32:01.165Z,0.20
2022-12-17T13:37:17.842Z,-0.10
2022-12-17T13:42:30.443Z,-0.08
2022-12-17T13:47:35.250Z,-0.08
2022-12-17T13:52:37.137Z,-0.55
2022-12-17T13:57:45.490Z,-0.54
2022-12-17T14:02:48.903Z,-0.36
2022-12-17T14:07:51.089Z,-0.08
2022-12-17T14:13:05.430Z,-0.08
2022-12-17T14:18:14.692Z,-0.14
2022-12-17T14:23:27.212Z,0.16
2022-12-17T14:28:35.374Z,-0.25
2022-12-17T14:33:37.915Z,0.25
2022-12-17T14:38:42.034Z,0.22
2022-12-17T14:43:45.786Z,0.03
2022-12-17T14:49:04.814Z,-0.15
2022-12-17T14:54:06.631Z,-0.20
2022-12-17T14:59:35.971Z,0.24
2022-12-17T15:04:39.303Z,-0.22
2022-12-17T15:09:42.101Z,-0.00
2022-12-17T15:14:43.975Z,0.13
2022-12-17T15:19:50.195Z,-0.41
2022-12-17T15:24:56.156Z,-0.70
2022-12-17T15:29:58.006Z,-0.21
2022-12-17T15:34:59.958Z,-0.90
2022-12-17T15:40:02.424Z,-0.73
2022-12-17T15:45:05.012Z,-1.23
2022-12-17T15:50:07.592Z,-0.82
2022-12-17T15:55:14.371Z,-0.27
2022-12-17T16:00:18.602Z,-1.14
2022-12-17T16:05:22.019Z,-1.27
2022-12-17T16:10:23.912Z,-1.67
2022-12-17T16:15:25.893Z,-1.46
2022-12-17T16:20:29.941Z,-1.35
2022-12-17T16:25:31.898Z,-1.34
2022-12-17T16:30:36.900Z,-1.65
2022-12-17T16:35:39.100Z,-0.98
2022-12-17T16:40:43.228Z,-1.35
2022-12-17T16:45:50.540Z,-1.57
2022-12-17T16:50:52.391Z,-1.27
2022-12-17T16:55:54.302Z,-1.88
2022-12-17T17:00:56.267Z,-1.98
2022-12-17T17:06:03.713Z,-1.73
2022-12-17T17:11:25.079Z,-2.19
2022-12-17T17:16:27.284Z,-1.95
2022-12-17T17:21:30.139Z,-1.97
2022-12-17T17:26:33.533Z,-2.12
2022-12-17T17:32:08.450Z,-2.37
2022-12-17T17:36:57.275Z,-2.08
2022-12-17T17:41:59.304Z,-2.03
2022-12-17T17:47:01.529Z,-1.99
2022-12-17T17:52:11.611Z,-2.28
2022-12-17T17:57:14.057Z,-2.31
2022-12-17T18:02:16.071Z,-2.64
2022-12-17T18:07:26.607Z,-2.07
2022-12-17T18:12:47.407Z,-2.57
2022-12-17T18:17:51.603Z,-2.30
2022-12-17T18:22:53.739Z,-2.22
2022-12-17T18:27:57.511Z,-2.30
2022-12-17T18:32:59.351Z,-2.93
2022-12-17T18:38:01.617Z,-3.02
2022-12-17T18:43:22.359Z,-2.46
2022-12-17T18:48:24.175Z,-2.46
2022-12-17T18:53:26.127Z,-2.64
2022-12-17T18:58:27.979Z,-2.23
2022-12-17T19:03:29.867Z,-2.54
2022-12-17T19:08:35.323Z,-2.28
2022-12-17T19:13:37.628Z,-2.37
2022-12-17T19:18:40.397Z,-2.09
2022-12-17T19:23:42.692Z,-2.36
2022-12-17T19:28:47.789Z,-1.71
2022-12-17T19:33:49.787Z,-1.93
2022-12-17T19:38:56.496Z,-2.60
2022-12-17T19:44:00.955Z,-2.30
2022-12-17T19:49:04.378Z,-1.93
2022-12-17T19:54:08.809Z,-0.90
2022-12-17T19:59:11.877Z,-1.48
2022-12-17T20:04:15.856Z,-1.82
2022-12-17T20:09:17.793Z,-1.53
2022-12-17T20:14:29.452Z,-1.42
2022-12-17T20:19:33.135Z,-1.50
2022-12-17T20:24:37.158Z,-1.84
2022-12-17T20:29:39.223Z,-2.22
2022-12-17T20:34:41.124Z,-1.63
2022-12-17T20:39:43.557Z,-1.98
2022-12-17T20:44:51.581Z,-1.34
2022-12-17T20:49:55.187Z,-1.88
2022-12-17T20:54:57.126Z,-1.57
2022-12-17T20:59:59.037Z,-2.01
2022-12-17T21:05:01.016Z,-1.30
2022-12-17T21:10:03.023Z,-2.05
2022-12-17T21:15:05.105Z,-1.99
2022-12-17T21:20:10.556Z,-1.60
2022-12-17T21:25:14.196Z,-1.40
2022-12-17T21:30:16.137Z,-1.13
2022-12-17T21:35:18.064Z,-1.06
2022-12-17T21:40:20.243Z,-0.64
2022-12-17T21:45:22.577Z,-1.33
2022-12-17T21:50:24.649Z,-1.65
2022-12-17T21:55:27.231Z,-1.34
2022-12-17T22:00:29.197Z,-1.33
2022-12-17T22:05:31.412Z,-1.03
2022-12-17T22:10:43.472Z,-0.79
2022-12-17T22:15:54.763Z,-1.24
2022-12-17T22:21:00.920Z,-1.55
2022-12-17T22:26:02.742Z,-0.97
2022-12-17T22:31:32.782Z,-1.64
2022-12-17T22:38:17.887Z,-0.85
2022-12-17T22:44:49.373Z,-0.93
2022-12-17T22:47:38.182Z,-0.86
2022-12-17T22:52:40.097Z,-1.77
2022-12-17T22:57:42.424Z,-1.42
2022-12-17T23:02:44.407Z,-1.60
2022-12-17T23:07:46.411Z,-1.11
2022-12-17T23:12:51.682Z,-0.70
2022-12-17T23:17:56.019Z,-1.03
2022-12-17T23:22:58.911Z,-1.26
2022-12-17T23:28:00.805Z,-0.70
2022-12-17T23:33:04.196Z,-0.65
2022-12-17T23:38:06.080Z,-1.10
2022-12-17T23:43:10.632Z,-0.79
2022-12-17T23:48:14.965Z,-0.72
2022-12-17T23:53:16.833Z,-1.10
2022-12-17T23:58:19.048Z,-1.03
